PWSweather.com
Personal Weather Stations
Station Observations
KVAGLENALL
West Henrico, Glen Allen, VA 23060-6503

West HenricoGlen Allen, VA 23060-6503

Lat: 37.6554, Lon: -77.5693

Elevation: 273

Station Type: Davis Vantage Pro II

www.glenallenweather.com

High Low Average
Temperature 52.1°F11.2°C 25.3°F-3.7°C 38.7°F3.7°C
Dew Point 36.9°F2.7°C 23.0°F-5.0°C 30.6°F-0.8°C
Winds 14.0 mph 22.5 kmh Calm Calm 3.0 mph SE4.8 kmh SE
Wind Gusts 16.2 mph26.1 kmh -- 5.0 mph8.0 kmh
Humidity 95% 52% 75%
Pressure 30.56 in1034.9 mb 30.36 in1028.1 mb -
Precipitation 0.00 in0.0 mm - -
Hour Temp Dew Point Humidity Winds Wind Gusts Pressure Precip Precip Rate Daily Precip Total
12:00 AM 27.9°F-2.3°C 24.3°F-4.3°C 86% 3.0 mph E4.8 kmh E 4.0 mph6.4 kmh 30.49 in1032.5 mb 0.00 in0.0 mm 0.00 in0.0 mm 0.00 in0.0 mm
12:15 AM 27.8°F-2.3°C 23.9°F-4.5°C 85% 1.0 mph E1.6 kmh E 2.0 mph3.2 kmh 30.49 in1032.5 mb 0.00 in0.0 mm 0.00 in0.0 mm 0.00 in0.0 mm
12:30 AM 27.4°F-2.6°C 23.5°F-4.7°C 85% Calm Calm 1.0 mph1.6 kmh 30.49 in1032.5 mb 0.00 in0.0 mm 0.00 in0.0 mm 0.00 in0.0 mm
12:45 AM 27.0°F-2.8°C 23.7°F-4.6°C 87% 1.0 mph E1.6 kmh E 2.0 mph3.2 kmh 30.49 in1032.5 mb 0.00 in0.0 mm 0.00 in0.0 mm 0.00 in0.0 mm
01:00 AM 26.3°F-3.2°C 23.0°F-5.0°C 87% 1.0 mph E1.6 kmh E 2.0 mph3.2 kmh 30.49 in1032.5 mb 0.00 in0.0 mm 0.00 in0.0 mm 0.00 in0.0 mm
01:15 AM 26.3°F-3.2°C 23.0°F-5.0°C 87% Calm Calm 1.0 mph1.6 kmh 30.49 in1032.5 mb 0.00 in0.0 mm 0.00 in0.0 mm 0.00 in0.0 mm
01:30 AM 26.3°F-3.2°C 23.5°F-4.7°C 89% Calm Calm 1.0 mph1.6 kmh 30.49 in1032.5 mb 0.00 in0.0 mm 0.00 in0.0 mm 0.00 in0.0 mm
01:45 AM 26.7°F-2.9°C 23.9°F-4.5°C 89% 1.0 mph ESE1.6 kmh ESE 3.0 mph4.8 kmh 30.49 in1032.5 mb 0.00 in0.0 mm 0.00 in0.0 mm 0.00 in0.0 mm
02:00 AM 26.6°F-3.0°C 23.8°F-4.6°C 89% 2.0 mph SE3.2 kmh SE 3.0 mph4.8 kmh 30.50 in1032.8 mb 0.00 in0.0 mm 0.00 in0.0 mm 0.00 in0.0 mm
02:15 AM 26.8°F-2.9°C 24.0°F-4.4°C 89% 1.0 mph SE1.6 kmh SE 3.0 mph4.8 kmh 30.49 in1032.5 mb 0.00 in0.0 mm 0.00 in0.0 mm 0.00 in0.0 mm
02:30 AM 26.6°F-3.0°C 23.8°F-4.6°C 89% Calm Calm -- 30.49 in1032.5 mb 0.00 in0.0 mm 0.00 in0.0 mm 0.00 in0.0 mm
02:45 AM 26.3°F-3.2°C 23.8°F-4.6°C 90% 1.0 mph ESE1.6 kmh ESE 2.0 mph3.2 kmh 30.49 in1032.5 mb 0.00 in0.0 mm 0.00 in0.0 mm 0.00 in0.0 mm
03:00 AM 26.3°F-3.2°C 24.1°F-4.4°C 91% Calm Calm 3.0 mph4.8 kmh 30.48 in1032.2 mb 0.00 in0.0 mm 0.00 in0.0 mm 0.00 in0.0 mm
03:15 AM 26.2°F-3.2°C 24.0°F-4.4°C 91% 2.0 mph E3.2 kmh E 2.0 mph3.2 kmh 30.48 in1032.2 mb 0.00 in0.0 mm 0.00 in0.0 mm 0.00 in0.0 mm
03:30 AM 26.2°F-3.2°C 24.0°F-4.4°C 91% 2.0 mph E3.2 kmh E 3.0 mph4.8 kmh 30.48 in1032.2 mb 0.00 in0.0 mm 0.00 in0.0 mm 0.00 in0.0 mm
03:45 AM 26.7°F-2.9°C 24.5°F-4.2°C 91% 2.0 mph E3.2 kmh E 3.0 mph4.8 kmh 30.48 in1032.2 mb 0.00 in0.0 mm 0.00 in0.0 mm 0.00 in0.0 mm
04:00 AM 27.0°F-2.8°C 24.8°F-4.0°C 91% 2.0 mph SE3.2 kmh SE 6.1 mph9.8 kmh 30.48 in1032.2 mb 0.00 in0.0 mm 0.00 in0.0 mm 0.00 in0.0 mm
04:15 AM 27.2°F-2.7°C 24.7°F-4.1°C 90% Calm Calm 2.0 mph3.2 kmh 30.47 in1031.8 mb 0.00 in0.0 mm 0.00 in0.0 mm 0.00 in0.0 mm
04:30 AM 27.2°F-2.7°C 25.0°F-3.9°C 91% 2.0 mph SE3.2 kmh SE 2.0 mph3.2 kmh 30.48 in1032.2 mb 0.00 in0.0 mm 0.00 in0.0 mm 0.00 in0.0 mm
04:45 AM 27.1°F-2.7°C 24.9°F-3.9°C 91% 2.0 mph SE3.2 kmh SE 2.0 mph3.2 kmh 30.49 in1032.5 mb 0.00 in0.0 mm 0.00 in0.0 mm 0.00 in0.0 mm
05:00 AM 26.8°F-2.9°C 24.6°F-4.1°C 91% 1.0 mph SE1.6 kmh SE 2.0 mph3.2 kmh 30.49 in1032.5 mb 0.00 in0.0 mm 0.00 in0.0 mm 0.00 in0.0 mm
05:15 AM 26.6°F-3.0°C 24.6°F-4.1°C 92% 1.0 mph SE1.6 kmh SE 3.0 mph4.8 kmh 30.49 in1032.5 mb 0.00 in0.0 mm 0.00 in0.0 mm 0.00 in0.0 mm
05:30 AM 26.6°F-3.0°C 24.6°F-4.1°C 92% Calm Calm 1.0 mph1.6 kmh 30.49 in1032.5 mb 0.00 in0.0 mm 0.00 in0.0 mm 0.00 in0.0 mm
05:45 AM 26.5°F-3.1°C 24.5°F-4.2°C 92% Calm Calm 1.0 mph1.6 kmh 30.50 in1032.8 mb 0.00 in0.0 mm 0.00 in0.0 mm 0.00 in0.0 mm
06:00 AM 26.1°F-3.3°C 24.1°F-4.4°C 92% 1.0 mph S1.6 kmh S 2.0 mph3.2 kmh 30.51 in1033.2 mb 0.00 in0.0 mm 0.00 in0.0 mm 0.00 in0.0 mm
06:15 AM 26.1°F-3.3°C 24.4°F-4.2°C 93% 2.0 mph SE3.2 kmh SE 3.0 mph4.8 kmh 30.51 in1033.2 mb 0.00 in0.0 mm 0.00 in0.0 mm 0.00 in0.0 mm
06:30 AM 26.0°F-3.3°C 24.3°F-4.3°C 93% 2.0 mph SE3.2 kmh SE 3.0 mph4.8 kmh 30.51 in1033.2 mb 0.00 in0.0 mm 0.00 in0.0 mm 0.00 in0.0 mm
06:45 AM 25.8°F-3.4°C 24.1°F-4.4°C 93% 1.0 mph SE1.6 kmh SE 2.0 mph3.2 kmh 30.51 in1033.2 mb 0.00 in0.0 mm 0.00 in0.0 mm 0.00 in0.0 mm
07:00 AM 25.3°F-3.7°C 23.6°F-4.7°C 93% Calm Calm -- 30.52 in1033.5 mb 0.00 in0.0 mm 0.00 in0.0 mm 0.00 in0.0 mm
07:15 AM 25.5°F-3.6°C 24.0°F-4.4°C 94% Calm Calm -- 30.52 in1033.5 mb 0.00 in0.0 mm 0.00 in0.0 mm 0.00 in0.0 mm
07:30 AM 25.7°F-3.5°C 24.2°F-4.3°C 94% Calm Calm -- 30.52 in1033.5 mb 0.00 in0.0 mm 0.00 in0.0 mm 0.00 in0.0 mm
07:45 AM 26.2°F-3.2°C 24.7°F-4.1°C 94% Calm Calm 1.0 mph1.6 kmh 30.53 in1033.9 mb 0.00 in0.0 mm 0.00 in0.0 mm 0.00 in0.0 mm
08:00 AM 27.7°F-2.4°C 26.5°F-3.1°C 95% 1.0 mph SE1.6 kmh SE 2.0 mph3.2 kmh 30.53 in1033.9 mb 0.00 in0.0 mm 0.00 in0.0 mm 0.00 in0.0 mm
08:15 AM 29.4°F-1.4°C 27.8°F-2.3°C 94% 1.0 mph ESE1.6 kmh ESE 3.0 mph4.8 kmh 30.54 in1034.2 mb 0.00 in0.0 mm 0.00 in0.0 mm 0.00 in0.0 mm
08:30 AM 31.3°F-0.4°C 28.9°F-1.7°C 91% 1.0 mph SE1.6 kmh SE 3.0 mph4.8 kmh 30.54 in1034.2 mb 0.00 in0.0 mm 0.00 in0.0 mm 0.00 in0.0 mm
08:45 AM 32.9°F0.5°C 29.7°F-1.3°C 88% 1.0 mph ESE1.6 kmh ESE 2.0 mph3.2 kmh 30.54 in1034.2 mb 0.00 in0.0 mm 0.00 in0.0 mm 0.00 in0.0 mm
09:00 AM 34.3°F1.3°C 30.5°F-0.8°C 86% 1.0 mph ESE1.6 kmh ESE 2.0 mph3.2 kmh 30.54 in1034.2 mb 0.00 in0.0 mm 0.00 in0.0 mm 0.00 in0.0 mm
09:15 AM 36.3°F2.4°C 31.9°F-0.1°C 84% 1.0 mph SE1.6 kmh SE 3.0 mph4.8 kmh 30.55 in1034.5 mb 0.00 in0.0 mm 0.00 in0.0 mm 0.00 in0.0 mm
09:30 AM 37.9°F3.3°C 32.6°F0.3°C 81% 1.0 mph SSE1.6 kmh SSE 2.0 mph3.2 kmh 30.55 in1034.5 mb 0.00 in0.0 mm 0.00 in0.0 mm 0.00 in0.0 mm
09:45 AM 39.6°F4.2°C 33.6°F0.9°C 79% 5.0 mph SW8.0 kmh SW 7.1 mph11.4 kmh 30.56 in1034.9 mb 0.00 in0.0 mm 0.00 in0.0 mm 0.00 in0.0 mm
10:00 AM 40.2°F4.6°C 34.2°F1.2°C 79% 4.0 mph SSE6.4 kmh SSE 5.1 mph8.2 kmh 30.56 in1034.9 mb 0.00 in0.0 mm 0.00 in0.0 mm 0.00 in0.0 mm
10:15 AM 41.0°F5.0°C 34.0°F1.1°C 76% 2.0 mph SE3.2 kmh SE 5.1 mph8.2 kmh 30.55 in1034.5 mb 0.00 in0.0 mm 0.00 in0.0 mm 0.00 in0.0 mm
10:30 AM 41.9°F5.5°C 34.6°F1.4°C 75% 6.0 mph SSW9.7 kmh SSW 7.1 mph11.4 kmh 30.54 in1034.2 mb 0.00 in0.0 mm 0.00 in0.0 mm 0.00 in0.0 mm
10:45 AM 43.5°F6.4°C 35.5°F1.9°C 73% 2.0 mph S3.2 kmh S 4.0 mph6.4 kmh 30.54 in1034.2 mb 0.00 in0.0 mm 0.00 in0.0 mm 0.00 in0.0 mm
11:00 AM 44.3°F6.8°C 35.9°F2.2°C 72% 1.0 mph S1.6 kmh S 2.0 mph3.2 kmh 30.54 in1034.2 mb 0.00 in0.0 mm 0.00 in0.0 mm 0.00 in0.0 mm
11:15 AM 46.3°F7.9°C 36.7°F2.6°C 69% 3.0 mph S4.8 kmh S 7.1 mph11.4 kmh 30.54 in1034.2 mb 0.00 in0.0 mm 0.00 in0.0 mm 0.00 in0.0 mm
11:30 AM 47.2°F8.4°C 36.9°F2.7°C 67% 6.0 mph SSE9.7 kmh SSE 7.1 mph11.4 kmh 30.53 in1033.9 mb 0.00 in0.0 mm 0.00 in0.0 mm 0.00 in0.0 mm
11:45 AM 47.5°F8.6°C 35.6°F2.0°C 63% 14.0 mph S22.5 kmh S 14.1 mph22.7 kmh 30.53 in1033.9 mb 0.00 in0.0 mm 0.00 in0.0 mm 0.00 in0.0 mm
12:00 PM 47.9°F8.8°C 35.6°F2.0°C 62% 4.0 mph SSW6.4 kmh SSW 14.1 mph22.7 kmh 30.52 in1033.5 mb 0.00 in0.0 mm 0.00 in0.0 mm 0.00 in0.0 mm
12:15 PM 47.9°F8.8°C 35.6°F2.0°C 62% 10.0 mph S16.1 kmh S 13.1 mph21.1 kmh 30.51 in1033.2 mb 0.00 in0.0 mm 0.00 in0.0 mm 0.00 in0.0 mm
12:30 PM 49.8°F9.9°C 36.0°F2.2°C 59% 11.0 mph S17.7 kmh S 16.2 mph26.1 kmh 30.50 in1032.8 mb 0.00 in0.0 mm 0.00 in0.0 mm 0.00 in0.0 mm
12:45 PM 50.7°F10.4°C 35.6°F2.0°C 56% 4.0 mph SW6.4 kmh SW 10.1 mph16.3 kmh 30.49 in1032.5 mb 0.00 in0.0 mm 0.00 in0.0 mm 0.00 in0.0 mm
01:00 PM 50.5°F10.3°C 34.9°F1.6°C 55% 12.0 mph SSW19.3 kmh SSW 14.1 mph22.7 kmh 30.48 in1032.2 mb 0.00 in0.0 mm 0.00 in0.0 mm 0.00 in0.0 mm
01:15 PM 50.4°F10.2°C 34.8°F1.6°C 55% 3.0 mph SSW4.8 kmh SSW 9.1 mph14.6 kmh 30.47 in1031.8 mb 0.00 in0.0 mm 0.00 in0.0 mm 0.00 in0.0 mm
01:30 PM 51.3°F10.7°C 34.3°F1.3°C 52% 11.0 mph WSW17.7 kmh WSW 13.1 mph21.1 kmh 30.46 in1031.5 mb 0.00 in0.0 mm 0.00 in0.0 mm 0.00 in0.0 mm
01:45 PM 51.3°F10.7°C 34.7°F1.5°C 53% 5.0 mph S8.0 kmh S 10.1 mph16.3 kmh 30.45 in1031.2 mb 0.00 in0.0 mm 0.00 in0.0 mm 0.00 in0.0 mm
02:00 PM 51.3°F10.7°C 35.2°F1.8°C 54% 7.0 mph S11.3 kmh S 14.1 mph22.7 kmh 30.45 in1031.2 mb 0.00 in0.0 mm 0.00 in0.0 mm 0.00 in0.0 mm
02:15 PM 52.1°F11.2°C 35.5°F1.9°C 53% 3.0 mph SSW4.8 kmh SSW 11.1 mph17.9 kmh 30.43 in1030.5 mb 0.00 in0.0 mm 0.00 in0.0 mm 0.00 in0.0 mm
02:30 PM 51.8°F11.0°C 34.7°F1.5°C 52% 6.0 mph SSW9.7 kmh SSW 10.1 mph16.3 kmh 30.42 in1030.1 mb 0.00 in0.0 mm 0.00 in0.0 mm 0.00 in0.0 mm
02:45 PM 51.6°F10.9°C 35.0°F1.7°C 53% 3.0 mph SE4.8 kmh SE 8.1 mph13.0 kmh 30.42 in1030.1 mb 0.00 in0.0 mm 0.00 in0.0 mm 0.00 in0.0 mm
03:00 PM 52.0°F11.1°C 35.9°F2.2°C 54% 6.0 mph SW9.7 kmh SW 6.1 mph9.8 kmh 30.41 in1029.8 mb 0.00 in0.0 mm 0.00 in0.0 mm 0.00 in0.0 mm
03:15 PM 52.1°F11.2°C 35.5°F1.9°C 53% 2.0 mph S3.2 kmh S 9.1 mph14.6 kmh 30.41 in1029.8 mb 0.00 in0.0 mm 0.00 in0.0 mm 0.00 in0.0 mm
03:30 PM 51.4°F10.8°C 35.3°F1.8°C 54% 6.0 mph SSW9.7 kmh SSW 6.1 mph9.8 kmh 30.41 in1029.8 mb 0.00 in0.0 mm 0.00 in0.0 mm 0.00 in0.0 mm
03:45 PM 51.6°F10.9°C 34.5°F1.4°C 52% 2.0 mph S3.2 kmh S 12.1 mph19.5 kmh 30.41 in1029.8 mb 0.00 in0.0 mm 0.00 in0.0 mm 0.00 in0.0 mm
04:00 PM 51.6°F10.9°C 34.5°F1.4°C 52% 7.0 mph SW11.3 kmh SW 13.1 mph21.1 kmh 30.40 in1029.5 mb 0.00 in0.0 mm 0.00 in0.0 mm 0.00 in0.0 mm
04:15 PM 51.4°F10.8°C 34.3°F1.3°C 52% 3.0 mph SSW4.8 kmh SSW 9.1 mph14.6 kmh 30.40 in1029.5 mb 0.00 in0.0 mm 0.00 in0.0 mm 0.00 in0.0 mm
04:30 PM 50.9°F10.5°C 34.4°F1.3°C 53% 2.0 mph S3.2 kmh S 4.0 mph6.4 kmh 30.40 in1029.5 mb 0.00 in0.0 mm 0.00 in0.0 mm 0.00 in0.0 mm
04:45 PM 50.7°F10.4°C 34.2°F1.2°C 53% 2.0 mph SSE3.2 kmh SSE 6.1 mph9.8 kmh 30.40 in1029.5 mb 0.00 in0.0 mm 0.00 in0.0 mm 0.00 in0.0 mm
05:00 PM 50.5°F10.3°C 34.5°F1.4°C 54% 3.0 mph SSE4.8 kmh SSE 8.1 mph13.0 kmh 30.39 in1029.1 mb 0.00 in0.0 mm 0.00 in0.0 mm 0.00 in0.0 mm
05:15 PM 50.3°F10.2°C 34.3°F1.3°C 54% 3.0 mph S4.8 kmh S 7.1 mph11.4 kmh 30.39 in1029.1 mb 0.00 in0.0 mm 0.00 in0.0 mm 0.00 in0.0 mm
05:30 PM 49.8°F9.9°C 34.3°F1.3°C 55% 3.0 mph SSE4.8 kmh SSE 5.1 mph8.2 kmh 30.39 in1029.1 mb 0.00 in0.0 mm 0.00 in0.0 mm 0.00 in0.0 mm
05:45 PM 49.4°F9.7°C 34.3°F1.3°C 56% 7.0 mph SE11.3 kmh SE 8.1 mph13.0 kmh 30.39 in1029.1 mb 0.00 in0.0 mm 0.00 in0.0 mm 0.00 in0.0 mm
06:00 PM 48.6°F9.2°C 34.1°F1.2°C 57% 2.0 mph SSE3.2 kmh SSE 7.1 mph11.4 kmh 30.38 in1028.8 mb 0.00 in0.0 mm 0.00 in0.0 mm 0.00 in0.0 mm
06:15 PM 48.1°F8.9°C 34.1°F1.2°C 58% 2.0 mph SE3.2 kmh SE 5.1 mph8.2 kmh 30.38 in1028.8 mb 0.00 in0.0 mm 0.00 in0.0 mm 0.00 in0.0 mm
06:30 PM 47.4°F8.6°C 33.8°F1.0°C 59% 2.0 mph SE3.2 kmh SE 5.1 mph8.2 kmh 30.39 in1029.1 mb 0.00 in0.0 mm 0.00 in0.0 mm 0.00 in0.0 mm
06:45 PM 46.4°F8.0°C 33.7°F0.9°C 61% 2.0 mph SE3.2 kmh SE 3.0 mph4.8 kmh 30.39 in1029.1 mb 0.00 in0.0 mm 0.00 in0.0 mm 0.00 in0.0 mm
07:00 PM 45.7°F7.6°C 33.9°F1.1°C 63% 2.0 mph SE3.2 kmh SE 3.0 mph4.8 kmh 30.38 in1028.8 mb 0.00 in0.0 mm 0.00 in0.0 mm 0.00 in0.0 mm
07:15 PM 44.8°F7.1°C 33.4°F0.8°C 64% 8.0 mph SE12.9 kmh SE 8.1 mph13.0 kmh 30.39 in1029.1 mb 0.00 in0.0 mm 0.00 in0.0 mm 0.00 in0.0 mm
07:30 PM 45.4°F7.4°C 33.6°F0.9°C 63% 2.0 mph S3.2 kmh S 6.1 mph9.8 kmh 30.38 in1028.8 mb 0.00 in0.0 mm 0.00 in0.0 mm 0.00 in0.0 mm
07:45 PM 45.6°F7.6°C 33.8°F1.0°C 63% 4.0 mph SE6.4 kmh SE 9.1 mph14.6 kmh 30.38 in1028.8 mb 0.00 in0.0 mm 0.00 in0.0 mm 0.00 in0.0 mm
08:00 PM 45.6°F7.6°C 33.8°F1.0°C 63% 4.0 mph SE6.4 kmh SE 8.1 mph13.0 kmh 30.38 in1028.8 mb 0.00 in0.0 mm 0.00 in0.0 mm 0.00 in0.0 mm
08:15 PM 45.4°F7.4°C 33.6°F0.9°C 63% 1.0 mph SE1.6 kmh SE 3.0 mph4.8 kmh 30.38 in1028.8 mb 0.00 in0.0 mm 0.00 in0.0 mm 0.00 in0.0 mm
08:30 PM 44.3°F6.8°C 33.3°F0.7°C 65% 2.0 mph SE3.2 kmh SE 4.0 mph6.4 kmh 30.38 in1028.8 mb 0.00 in0.0 mm 0.00 in0.0 mm 0.00 in0.0 mm
08:45 PM 44.0°F6.7°C 33.8°F1.0°C 67% 1.0 mph ESE1.6 kmh ESE 4.0 mph6.4 kmh 30.38 in1028.8 mb 0.00 in0.0 mm 0.00 in0.0 mm 0.00 in0.0 mm
09:00 PM 43.4°F6.3°C 33.9°F1.1°C 69% 2.0 mph SE3.2 kmh SE 3.0 mph4.8 kmh 30.38 in1028.8 mb 0.00 in0.0 mm 0.00 in0.0 mm 0.00 in0.0 mm
09:15 PM 42.4°F5.8°C 33.3°F0.7°C 70% 2.0 mph ESE3.2 kmh ESE 3.0 mph4.8 kmh 30.38 in1028.8 mb 0.00 in0.0 mm 0.00 in0.0 mm 0.00 in0.0 mm
09:30 PM 41.2°F5.1°C 33.2°F0.7°C 73% 2.0 mph E3.2 kmh E 2.0 mph3.2 kmh 30.38 in1028.8 mb 0.00 in0.0 mm 0.00 in0.0 mm 0.00 in0.0 mm
09:45 PM 40.6°F4.8°C 33.3°F0.7°C 75% 3.0 mph ESE4.8 kmh ESE 4.0 mph6.4 kmh 30.38 in1028.8 mb 0.00 in0.0 mm 0.00 in0.0 mm 0.00 in0.0 mm
10:00 PM 39.9°F4.4°C 33.3°F0.7°C 77% 2.0 mph ESE3.2 kmh ESE 2.0 mph3.2 kmh 30.38 in1028.8 mb 0.00 in0.0 mm 0.00 in0.0 mm 0.00 in0.0 mm
10:15 PM 39.0°F3.9°C 33.1°F0.6°C 79% 2.0 mph ESE3.2 kmh ESE 3.0 mph4.8 kmh 30.38 in1028.8 mb 0.00 in0.0 mm 0.00 in0.0 mm 0.00 in0.0 mm
10:30 PM 38.7°F3.7°C 33.1°F0.6°C 80% 1.0 mph ESE1.6 kmh ESE 1.0 mph1.6 kmh 30.39 in1029.1 mb 0.00 in0.0 mm 0.00 in0.0 mm 0.00 in0.0 mm
10:45 PM 38.3°F3.5°C 33.3°F0.7°C 82% 2.0 mph SE3.2 kmh SE 2.0 mph3.2 kmh 30.38 in1028.8 mb 0.00 in0.0 mm 0.00 in0.0 mm 0.00 in0.0 mm
11:00 PM 37.8°F3.2°C 32.8°F0.4°C 82% 2.0 mph SE3.2 kmh SE 2.0 mph3.2 kmh 30.37 in1028.4 mb 0.00 in0.0 mm 0.00 in0.0 mm 0.00 in0.0 mm
11:15 PM 37.4°F3.0°C 32.7°F0.4°C 83% 1.0 mph SE1.6 kmh SE 2.0 mph3.2 kmh 30.36 in1028.1 mb 0.00 in0.0 mm 0.00 in0.0 mm 0.00 in0.0 mm
11:30 PM 37.3°F2.9°C 32.9°F0.5°C 84% Calm Calm 1.0 mph1.6 kmh 30.36 in1028.1 mb 0.00 in0.0 mm 0.00 in0.0 mm 0.00 in0.0 mm
11:45 PM 37.1°F2.8°C 33.3°F0.7°C 86% 1.0 mph SE1.6 kmh SE 2.0 mph3.2 kmh 30.36 in1028.1 mb 0.00 in0.0 mm 0.00 in0.0 mm 0.00 in0.0 mm